createdAt,value
2018-07-12T00:00:19.135Z,14.40
2018-07-12T00:01:18.361Z,14.60
2018-07-12T00:02:18.525Z,14.20
2018-07-12T00:03:18.697Z,14.50
2018-07-12T00:04:18.861Z,14.40
2018-07-12T00:05:19.028Z,15.10
2018-07-12T00:06:19.197Z,14.80
2018-07-12T00:07:19.367Z,14.10
2018-07-12T00:08:19.544Z,17.30
2018-07-12T00:09:19.915Z,13.40
2018-07-12T00:10:19.863Z,14.90
2018-07-12T00:11:20.032Z,13.00
2018-07-12T00:12:20.198Z,12.70
2018-07-12T00:13:20.366Z,14.00
2018-07-12T00:14:20.544Z,15.40
2018-07-12T00:15:20.709Z,13.50
2018-07-12T00:16:20.881Z,14.40
2018-07-12T00:17:21.047Z,13.30
2018-07-12T00:18:21.218Z,13.60
2018-07-12T00:19:21.384Z,13.30
2018-07-12T00:20:22.128Z,12.20
2018-07-12T00:21:21.756Z,13.20
2018-07-12T00:22:21.891Z,12.60
2018-07-12T00:23:22.062Z,12.30
2018-07-12T00:24:22.242Z,12.90
2018-07-12T00:25:22.385Z,12.80
2018-07-12T00:26:22.595Z,13.30
2018-07-12T00:27:22.725Z,12.80
2018-07-12T00:28:22.899Z,13.20
2018-07-12T00:29:23.065Z,13.10
2018-07-12T00:30:23.265Z,13.60
2018-07-12T00:31:23.418Z,13.50
2018-07-12T00:32:23.589Z,14.30
2018-07-12T00:33:23.755Z,14.20
2018-07-12T00:34:23.947Z,13.70
2018-07-12T00:35:24.110Z,14.50
2018-07-12T00:36:24.277Z,13.60
2018-07-12T00:37:24.448Z,16.80
2018-07-12T00:38:24.623Z,13.60
2018-07-12T00:39:24.785Z,16.30
2018-07-12T00:40:24.952Z,13.00
2018-07-12T00:41:25.119Z,16.40
2018-07-12T00:42:25.296Z,14.40
2018-07-12T00:43:25.464Z,15.40
2018-07-12T00:44:25.644Z,15.60
2018-07-12T00:45:25.810Z,17.20
2018-07-12T00:46:25.974Z,16.30
2018-07-12T00:47:26.143Z,15.80
2018-07-12T00:48:26.322Z,15.20
2018-07-12T00:49:26.486Z,15.00
2018-07-12T00:50:26.649Z,15.30
2018-07-12T00:51:26.824Z,15.40
2018-07-12T00:52:27.017Z,15.10
2018-07-12T00:53:27.162Z,16.40
2018-07-12T00:54:27.356Z,15.20
2018-07-12T00:55:27.491Z,15.10
2018-07-12T00:56:27.653Z,14.70
2018-07-12T00:57:27.824Z,15.60
2018-07-12T00:58:28.113Z,13.90
2018-07-12T00:59:28.163Z,15.60
2018-07-12T01:00:28.332Z,15.30
2018-07-12T01:01:28.504Z,16.20
2018-07-12T01:02:28.678Z,15.80
2018-07-12T01:03:29.122Z,18.90
2018-07-12T01:04:29.023Z,11.40
2018-07-12T01:05:29.192Z,13.10
2018-07-12T01:06:29.363Z,13.30
2018-07-12T01:07:29.543Z,13.10
2018-07-12T01:08:29.713Z,13.30
2018-07-12T01:09:29.885Z,12.80
2018-07-12T01:10:30.058Z,13.40
2018-07-12T01:11:30.253Z,13.30
2018-07-12T01:12:30.442Z,14.30
2018-07-12T01:13:30.561Z,12.60
2018-07-12T01:14:30.852Z,11.40
2018-07-12T01:15:30.919Z,15.40
2018-07-12T01:16:31.091Z,14.40
2018-07-12T01:17:31.255Z,15.30
2018-07-12T01:18:31.442Z,17.60
2018-07-12T01:19:32.148Z,15.60
2018-07-12T01:20:31.815Z,15.00
2018-07-12T01:21:31.920Z,20.20
2018-07-12T01:22:32.107Z,15.70
2018-07-12T01:23:32.308Z,17.60
2018-07-12T01:24:32.477Z,15.60
2018-07-12T01:25:32.641Z,19.00
2018-07-12T01:26:32.806Z,17.80
2018-07-12T01:27:32.977Z,14.90
2018-07-12T01:28:33.647Z,18.00
2018-07-12T01:29:33.300Z,19.10
2018-07-12T01:30:33.474Z,16.60
2018-07-12T01:31:33.678Z,16.50
2018-07-12T01:32:33.810Z,16.50
2018-07-12T01:33:33.979Z,19.80
2018-07-12T01:34:34.150Z,17.60
2018-07-12T01:35:34.316Z,16.00
2018-07-12T01:36:34.482Z,14.90
2018-07-12T01:37:34.651Z,15.60
2018-07-12T01:38:34.817Z,17.90
2018-07-12T01:39:34.988Z,15.30
2018-07-12T01:40:35.162Z,15.40
2018-07-12T01:41:35.332Z,15.80
2018-07-12T01:42:35.493Z,15.80
2018-07-12T01:43:35.664Z,14.90
2018-07-12T01:44:35.832Z,17.50
2018-07-12T01:45:36.004Z,14.60
2018-07-12T01:46:36.181Z,16.00
2018-07-12T01:47:36.347Z,17.90
2018-07-12T01:48:36.518Z,15.60
2018-07-12T01:49:36.685Z,16.40
2018-07-12T01:50:36.851Z,17.30
2018-07-12T01:51:37.020Z,15.80
2018-07-12T01:52:37.190Z,17.30
2018-07-12T01:53:37.365Z,17.00
2018-07-12T01:54:37.537Z,16.30
2018-07-12T01:55:37.746Z,16.10
2018-07-12T01:56:37.867Z,15.40
2018-07-12T01:57:38.127Z,15.70
2018-07-12T01:58:38.196Z,16.80
2018-07-12T01:59:38.363Z,16.90
2018-07-12T02:00:38.636Z,16.40
2018-07-12T02:01:38.694Z,16.50
2018-07-12T02:02:38.987Z,17.30
2018-07-12T02:03:39.066Z,21.20
2018-07-12T02:04:39.238Z,17.10
2018-07-12T02:05:39.398Z,15.40
2018-07-12T02:06:39.565Z,15.90
2018-07-12T02:07:39.785Z,15.90
2018-07-12T02:08:39.857Z,17.20
2018-07-12T02:09:40.119Z,15.20
2018-07-12T02:10:40.197Z,17.00
2018-07-12T02:11:40.546Z,15.90
2018-07-12T02:12:40.555Z,17.10
2018-07-12T02:13:40.725Z,16.40
2018-07-12T02:14:40.895Z,18.60
2018-07-12T02:15:41.064Z,18.80
2018-07-12T02:16:41.226Z,16.60
2018-07-12T02:17:41.399Z,16.70
2018-07-12T02:18:41.560Z,16.40
2018-07-12T02:19:41.733Z,19.10
2018-07-12T02:20:41.904Z,21.20
2018-07-12T02:21:42.321Z,19.50
2018-07-12T02:22:42.362Z,16.40
2018-07-12T02:23:42.449Z,17.20
2018-07-12T02:24:42.620Z,17.00
2018-07-12T02:25:42.824Z,17.60
2018-07-12T02:26:42.964Z,17.30
2018-07-12T02:27:43.270Z,20.40
2018-07-12T02:28:43.289Z,16.90
2018-07-12T02:29:43.457Z,15.70
2018-07-12T02:30:43.634Z,15.20
2018-07-12T02:31:43.799Z,17.60
2018-07-12T02:32:43.970Z,16.20
2018-07-12T02:33:44.137Z,16.20
2018-07-12T02:34:44.302Z,14.70
2018-07-12T02:35:44.473Z,15.40
2018-07-12T02:36:44.641Z,14.90
2018-07-12T02:37:44.807Z,16.60
2018-07-12T02:38:45.003Z,15.50
2018-07-12T02:39:45.172Z,14.50
2018-07-12T02:40:45.342Z,14.30
2018-07-12T02:41:45.510Z,14.30
2018-07-12T02:42:45.674Z,15.20
2018-07-12T02:43:45.845Z,13.40
2018-07-12T02:44:46.124Z,14.30
2018-07-12T02:45:46.239Z,14.60
2018-07-12T02:46:46.410Z,14.60
2018-07-12T02:47:46.598Z,15.70
2018-07-12T02:48:46.879Z,12.10
2018-07-12T02:49:46.905Z,15.30
2018-07-12T02:50:47.077Z,12.10
2018-07-12T02:51:47.247Z,12.80
2018-07-12T02:52:47.414Z,14.50
2018-07-12T02:53:47.588Z,13.30
2018-07-12T02:54:47.750Z,14.60
2018-07-12T02:55:47.916Z,13.80
2018-07-12T02:56:48.090Z,12.00
2018-07-12T02:57:48.256Z,11.40
2018-07-12T02:58:48.428Z,10.50
2018-07-12T02:59:48.589Z,9.40
2018-07-12T03:00:48.758Z,10.80
2018-07-12T03:01:48.924Z,11.50
2018-07-12T03:02:49.098Z,11.30
2018-07-12T03:03:49.267Z,12.70
2018-07-12T03:04:49.438Z,9.70
2018-07-12T03:05:49.601Z,13.60
2018-07-12T03:06:49.771Z,10.60
2018-07-12T03:07:49.946Z,10.30
2018-07-12T03:08:50.118Z,11.30
2018-07-12T03:09:50.286Z,10.10
2018-07-12T03:10:50.453Z,12.30
2018-07-12T03:11:50.615Z,10.40
2018-07-12T03:12:50.786Z,11.80
2018-07-12T03:13:50.948Z,11.80
2018-07-12T03:14:51.119Z,10.00
2018-07-12T03:15:51.293Z,10.10
2018-07-12T03:16:51.463Z,9.90
2018-07-12T03:17:51.632Z,10.00
2018-07-12T03:18:51.798Z,11.70
2018-07-12T03:19:51.967Z,11.90
2018-07-12T03:20:52.137Z,13.00
2018-07-12T03:21:52.313Z,10.20
2018-07-12T03:22:52.475Z,12.60
2018-07-12T03:23:52.646Z,10.60
2018-07-12T03:24:52.818Z,10.50
2018-07-12T03:25:52.984Z,11.80
2018-07-12T03:26:53.161Z,11.10
2018-07-12T03:27:53.329Z,9.80
2018-07-12T03:28:53.500Z,9.60
2018-07-12T03:29:53.662Z,8.70
2018-07-12T03:30:53.826Z,8.20
2018-07-12T03:31:53.997Z,8.80
2018-07-12T03:32:54.164Z,9.50
2018-07-12T03:33:54.335Z,11.30
2018-07-12T03:34:54.500Z,8.50
2018-07-12T03:35:54.669Z,9.40
2018-07-12T03:36:54.836Z,8.70
2018-07-12T03:37:55.006Z,8.20
2018-07-12T03:38:55.176Z,8.10
2018-07-12T03:39:55.354Z,8.10
2018-07-12T03:40:55.515Z,8.90
2018-07-12T03:41:55.675Z,9.90
2018-07-12T03:42:55.845Z,7.90
2018-07-12T03:43:56.013Z,9.40
2018-07-12T03:44:56.185Z,8.10
2018-07-12T03:45:56.354Z,8.70
2018-07-12T03:46:56.519Z,9.50
2018-07-12T03:47:56.686Z,9.80
2018-07-12T03:48:56.858Z,9.80
2018-07-12T03:49:57.026Z,9.50
2018-07-12T03:50:57.191Z,12.30
2018-07-12T03:51:57.363Z,9.40
2018-07-12T03:52:57.530Z,9.50
2018-07-12T03:53:57.724Z,8.70
2018-07-12T03:54:57.897Z,8.90
2018-07-12T03:55:58.070Z,9.30
2018-07-12T03:56:58.239Z,9.90
2018-07-12T03:57:58.411Z,9.80
2018-07-12T03:58:58.570Z,10.60
2018-07-12T03:59:58.738Z,9.80
2018-07-12T04:00:58.909Z,10.20
2018-07-12T04:01:59.077Z,10.60
2018-07-12T04:02:59.246Z,12.90
2018-07-12T04:03:59.415Z,12.00
2018-07-12T04:04:59.590Z,13.60
2018-07-12T04:05:59.756Z,12.50
2018-07-12T04:06:59.922Z,12.50
2018-07-12T04:08:00.097Z,14.50
2018-07-12T04:09:00.263Z,11.80
2018-07-12T04:10:00.431Z,12.80
2018-07-12T04:11:00.614Z,11.90
2018-07-12T04:12:00.770Z,13.80
2018-07-12T04:13:00.936Z,13.00
2018-07-12T04:14:01.105Z,12.40
2018-07-12T04:15:01.278Z,12.50
2018-07-12T04:16:01.448Z,16.70
2018-07-12T04:17:01.615Z,14.50
2018-07-12T04:18:01.796Z,11.30
2018-07-12T04:19:01.968Z,10.30
2018-07-12T04:20:02.139Z,11.40
2018-07-12T04:21:02.308Z,10.10
2018-07-12T04:22:02.476Z,10.90
2018-07-12T04:23:02.651Z,11.50
2018-07-12T04:24:02.820Z,10.30
2018-07-12T04:25:02.992Z,10.20
2018-07-12T04:26:03.155Z,9.50
2018-07-12T04:27:03.317Z,10.80
2018-07-12T04:28:03.488Z,9.70
2018-07-12T04:29:03.653Z,10.20
2018-07-12T04:30:03.831Z,11.50
2018-07-12T04:31:03.999Z,9.60
2018-07-12T04:32:04.169Z,11.10
2018-07-12T04:33:04.340Z,10.10
2018-07-12T04:34:04.503Z,9.70
2018-07-12T04:35:04.671Z,11.60
2018-07-12T04:36:04.838Z,11.70
2018-07-12T04:37:05.011Z,12.20
2018-07-12T04:38:05.179Z,10.50
2018-07-12T04:39:05.346Z,9.60
2018-07-12T04:40:05.514Z,9.90
2018-07-12T04:41:05.685Z,10.70
2018-07-12T04:42:05.848Z,10.80
2018-07-12T04:43:06.013Z,10.10
2018-07-12T04:44:06.189Z,11.80
2018-07-12T04:45:06.357Z,11.30
2018-07-12T04:46:06.526Z,9.80
2018-07-12T04:47:06.696Z,9.60
2018-07-12T04:48:06.872Z,12.40
2018-07-12T04:49:07.035Z,11.00
2018-07-12T04:50:07.204Z,9.10
2018-07-12T04:51:07.376Z,11.20
2018-07-12T04:52:07.536Z,10.30
2018-07-12T04:53:07.702Z,8.80
2018-07-12T04:54:07.869Z,8.30
2018-07-12T04:55:08.037Z,9.90
2018-07-12T04:56:08.207Z,8.90
2018-07-12T04:57:08.377Z,8.80
2018-07-12T04:58:08.573Z,8.60
2018-07-12T04:59:08.728Z,11.60
2018-07-12T05:00:08.910Z,10.90
2018-07-12T05:01:09.077Z,9.00
2018-07-12T05:02:09.255Z,8.70
2018-07-12T05:03:09.420Z,9.50
2018-07-12T05:04:09.593Z,10.20
2018-07-12T05:05:09.766Z,9.20
2018-07-12T05:06:09.940Z,9.40
2018-07-12T05:07:10.107Z,10.50
2018-07-12T05:08:10.320Z,10.00
2018-07-12T05:09:10.453Z,11.70
2018-07-12T05:10:10.618Z,10.40
2018-07-12T05:11:10.784Z,12.20
2018-07-12T05:12:10.953Z,13.20
2018-07-12T05:13:11.124Z,13.60
2018-07-12T05:14:11.291Z,15.00
2018-07-12T05:15:11.456Z,19.70
2018-07-12T05:16:11.651Z,15.50
2018-07-12T05:17:11.795Z,14.40
2018-07-12T05:18:11.968Z,16.00
2018-07-12T05:19:12.132Z,15.70
2018-07-12T05:20:12.304Z,15.30
2018-07-12T05:21:12.487Z,15.70
2018-07-12T05:22:12.669Z,13.90
2018-07-12T05:23:12.837Z,15.00
2018-07-12T05:24:13.017Z,14.10
2018-07-12T05:25:13.178Z,14.30
2018-07-12T05:26:13.342Z,17.30
2018-07-12T05:27:13.512Z,20.30
2018-07-12T05:28:13.684Z,13.50
2018-07-12T05:29:13.850Z,17.10
2018-07-12T05:30:14.021Z,13.40
2018-07-12T05:31:14.189Z,14.50
2018-07-12T05:32:14.359Z,18.90
2018-07-12T05:33:14.529Z,16.00
2018-07-12T05:34:14.704Z,17.80
2018-07-12T05:35:14.873Z,16.00
2018-07-12T05:36:15.039Z,12.90
2018-07-12T05:37:15.212Z,16.60
2018-07-12T05:38:15.379Z,16.70
2018-07-12T05:39:15.557Z,16.30
2018-07-12T05:40:15.713Z,16.00
2018-07-12T05:41:15.885Z,15.00
2018-07-12T05:42:16.060Z,16.90
2018-07-12T05:43:16.226Z,16.30
2018-07-12T05:44:16.395Z,18.10
2018-07-12T05:45:16.568Z,15.00
2018-07-12T05:46:16.731Z,15.70
2018-07-12T05:47:16.912Z,14.40
2018-07-12T05:48:17.089Z,14.80
2018-07-12T05:49:17.254Z,15.50
2018-07-12T05:50:17.429Z,12.60
2018-07-12T05:51:17.606Z,11.60
2018-07-12T05:52:17.776Z,14.20
2018-07-12T05:53:17.941Z,12.10
2018-07-12T05:54:18.108Z,11.50
2018-07-12T05:55:18.279Z,16.10
2018-07-12T05:56:18.447Z,13.70
2018-07-12T05:57:18.620Z,15.50
2018-07-12T05:58:18.785Z,14.40
2018-07-12T05:59:18.963Z,15.20
2018-07-12T06:00:19.128Z,15.40
2018-07-12T06:01:19.291Z,17.90
2018-07-12T06:02:19.464Z,15.00
2018-07-12T06:03:19.630Z,15.80
2018-07-12T06:04:19.797Z,16.70
2018-07-12T06:05:19.970Z,16.40
2018-07-12T06:06:20.139Z,14.10
2018-07-12T06:07:20.304Z,14.60
2018-07-12T06:08:20.473Z,15.80
2018-07-12T06:09:20.642Z,14.70
2018-07-12T06:10:20.811Z,13.70
2018-07-12T06:11:20.983Z,17.70
2018-07-12T06:12:21.149Z,18.90
2018-07-12T06:13:21.427Z,15.40
2018-07-12T06:14:21.498Z,17.00
2018-07-12T06:15:21.667Z,16.30
2018-07-12T06:16:21.841Z,17.40
2018-07-12T06:17:22.012Z,16.40
2018-07-12T06:18:22.180Z,17.40
2018-07-12T06:19:22.345Z,13.40
2018-07-12T06:20:22.518Z,12.90
2018-07-12T06:21:22.690Z,15.20
2018-07-12T06:22:22.857Z,18.20
2018-07-12T06:23:23.030Z,14.50
2018-07-12T06:24:23.205Z,20.10
2018-07-12T06:25:23.374Z,17.40
2018-07-12T06:26:23.556Z,14.50
2018-07-12T06:27:23.730Z,14.80
2018-07-12T06:28:23.905Z,14.30
2018-07-12T06:29:24.069Z,16.60
2018-07-12T06:30:24.238Z,14.30
2018-07-12T06:31:24.416Z,15.20
2018-07-12T06:32:25.219Z,14.90
2018-07-12T06:33:25.199Z,13.40
2018-07-12T06:34:25.398Z,19.70
2018-07-12T06:35:25.608Z,13.70
2018-07-12T06:36:25.837Z,16.60
2018-07-12T06:37:25.993Z,15.90
2018-07-12T06:38:26.254Z,14.40
2018-07-12T06:39:26.337Z,13.70
2018-07-12T06:40:26.552Z,15.00
2018-07-12T06:41:26.752Z,12.10
2018-07-12T06:42:26.937Z,11.30
2018-07-12T06:43:26.735Z,11.10
2018-07-12T06:44:26.902Z,10.50
2018-07-12T06:45:27.070Z,9.80
2018-07-12T06:46:27.240Z,11.50
2018-07-12T06:47:27.408Z,12.20
2018-07-12T06:48:27.582Z,11.40
2018-07-12T06:49:27.745Z,11.60
2018-07-12T06:50:27.918Z,10.80
2018-07-12T06:51:28.101Z,13.90
2018-07-12T06:52:28.265Z,11.40
2018-07-12T06:53:28.430Z,13.20
2018-07-12T06:54:28.604Z,13.80
2018-07-12T06:55:28.779Z,13.30
2018-07-12T06:56:28.959Z,12.30
2018-07-12T06:57:29.136Z,14.30
2018-07-12T06:58:29.311Z,11.30
2018-07-12T06:59:29.478Z,12.30
2018-07-12T07:00:29.674Z,11.90
2018-07-12T07:01:29.819Z,11.30
2018-07-12T07:02:30.166Z,11.70
2018-07-12T07:03:30.106Z,12.80
2018-07-12T07:04:30.272Z,11.60
2018-07-12T07:05:30.446Z,11.10
2018-07-12T07:06:30.615Z,13.20
2018-07-12T07:07:30.780Z,11.20
2018-07-12T07:08:30.952Z,12.10
2018-07-12T07:09:31.118Z,11.40
2018-07-12T07:10:31.287Z,14.30
2018-07-12T07:11:31.461Z,12.60
2018-07-12T07:12:31.629Z,15.30
2018-07-12T07:13:31.809Z,11.60
2018-07-12T07:14:31.975Z,11.40
2018-07-12T07:15:32.143Z,8.80
2018-07-12T07:16:32.357Z,7.30
2018-07-12T07:17:32.488Z,11.80
2018-07-12T07:18:32.660Z,11.80
2018-07-12T07:19:32.825Z,11.70
2018-07-12T07:20:32.999Z,11.80
2018-07-12T07:21:33.174Z,11.90
2018-07-12T07:22:33.350Z,12.00
2018-07-12T07:23:33.537Z,11.60
2018-07-12T07:24:33.704Z,12.30
2018-07-12T07:25:33.883Z,12.20
2018-07-12T07:26:34.050Z,11.30
2018-07-12T07:27:34.219Z,11.10
2018-07-12T07:28:34.393Z,10.70
2018-07-12T07:29:34.561Z,12.70
2018-07-12T07:30:34.735Z,10.90
2018-07-12T07:31:34.909Z,13.40
2018-07-12T07:32:35.075Z,10.80
2018-07-12T07:33:35.262Z,14.70
2018-07-12T07:34:35.431Z,16.40
2018-07-12T07:35:35.648Z,13.00
2018-07-12T07:36:35.767Z,11.10
2018-07-12T07:37:35.940Z,10.20
2018-07-12T07:38:36.114Z,10.40
2018-07-12T07:39:36.310Z,11.20
2018-07-12T07:40:36.458Z,10.30
2018-07-12T07:41:36.631Z,11.30
2018-07-12T07:42:36.803Z,10.20
2018-07-12T07:43:36.997Z,12.50
2018-07-12T07:44:37.145Z,9.80
2018-07-12T07:45:37.313Z,11.40
2018-07-12T07:46:37.487Z,9.80
2018-07-12T07:47:37.661Z,9.10
2018-07-12T07:48:37.841Z,9.80
2018-07-12T07:49:38.009Z,10.60
2018-07-12T07:50:38.179Z,10.00
2018-07-12T07:51:38.350Z,9.60
2018-07-12T07:52:38.526Z,9.60
2018-07-12T07:53:38.697Z,9.80
2018-07-12T07:54:38.868Z,11.60
2018-07-12T07:55:39.042Z,10.00
2018-07-12T07:56:39.208Z,10.70
2018-07-12T07:57:39.378Z,10.30
2018-07-12T07:58:39.549Z,9.60
2018-07-12T07:59:39.722Z,10.80
2018-07-12T08:00:39.894Z,10.40
2018-07-12T08:01:40.071Z,11.00
2018-07-12T08:02:40.242Z,9.50
2018-07-12T08:03:40.421Z,9.80
2018-07-12T08:04:40.601Z,9.90
2018-07-12T08:05:40.772Z,9.20
2018-07-12T08:06:40.948Z,8.80
2018-07-12T08:07:41.126Z,7.30
2018-07-12T08:08:41.300Z,5.40
2018-07-12T08:09:41.476Z,5.90
2018-07-12T08:10:41.640Z,4.90
2018-07-12T08:11:41.817Z,4.20
2018-07-12T08:12:41.993Z,5.20
2018-07-12T08:13:42.160Z,3.60
2018-07-12T08:14:42.338Z,4.20
2018-07-12T08:15:42.512Z,3.30
2018-07-12T08:16:42.687Z,3.90
2018-07-12T08:17:42.857Z,2.70
2018-07-12T08:18:43.043Z,2.70
2018-07-12T08:19:43.206Z,6.60
2018-07-12T08:20:43.388Z,2.80
2018-07-12T08:21:43.551Z,2.40
2018-07-12T08:22:43.724Z,2.50
2018-07-12T08:23:43.897Z,2.50
2018-07-12T08:24:44.071Z,2.10
2018-07-12T08:25:44.248Z,3.60
2018-07-12T08:26:44.420Z,4.90
2018-07-12T08:27:44.592Z,3.10
2018-07-12T08:28:44.776Z,3.50
2018-07-12T08:29:44.938Z,4.70
2018-07-12T08:30:45.119Z,3.30
2018-07-12T08:31:45.286Z,3.90
2018-07-12T08:32:45.462Z,3.20
2018-07-12T08:33:45.630Z,4.10
2018-07-12T08:34:46.738Z,3.00
2018-07-12T08:35:45.967Z,3.20
2018-07-12T08:36:46.744Z,3.30
2018-07-12T08:37:46.310Z,3.40
2018-07-12T08:38:47.238Z,2.50
2018-07-12T08:39:46.657Z,3.00
2018-07-12T08:40:46.820Z,3.20
2018-07-12T08:41:46.995Z,4.80
2018-07-12T08:42:47.176Z,2.90
2018-07-12T08:43:47.327Z,2.60
2018-07-12T08:44:47.520Z,2.90
2018-07-12T08:45:47.692Z,2.80
2018-07-12T08:46:47.868Z,2.80
2018-07-12T08:47:48.049Z,3.30
2018-07-12T08:48:48.230Z,2.60
2018-07-12T08:49:48.420Z,2.60
2018-07-12T08:50:48.594Z,4.30
2018-07-12T08:51:48.767Z,2.60
2018-07-12T08:52:48.941Z,2.30
2018-07-12T08:53:49.106Z,3.50
2018-07-12T08:54:49.281Z,2.70
2018-07-12T08:55:49.480Z,2.80
2018-07-12T08:56:49.619Z,2.40
2018-07-12T08:57:49.790Z,3.00
2018-07-12T08:58:49.961Z,3.10
2018-07-12T08:59:50.136Z,2.70
2018-07-12T09:00:50.306Z,4.20
2018-07-12T09:01:50.485Z,3.20
2018-07-12T09:02:50.697Z,3.40
2018-07-12T09:03:50.828Z,2.50
2018-07-12T09:04:51.008Z,2.30
2018-07-12T09:05:51.187Z,2.60
2018-07-12T09:06:51.367Z,2.40
2018-07-12T09:07:51.543Z,2.50
2018-07-12T09:08:51.712Z,2.60
2018-07-12T09:09:51.893Z,2.40
2018-07-12T09:10:52.766Z,3.90
2018-07-12T09:11:52.205Z,2.50
2018-07-12T09:12:52.379Z,2.70
2018-07-12T09:13:52.555Z,3.00
2018-07-12T09:14:52.721Z,2.80
2018-07-12T09:15:52.890Z,2.40
2018-07-12T09:16:53.065Z,2.60
2018-07-12T09:17:53.236Z,3.70
2018-07-12T09:18:53.416Z,2.20
2018-07-12T09:19:53.749Z,3.60
2018-07-12T09:20:53.784Z,2.90
2018-07-12T09:21:53.957Z,2.40
2018-07-12T09:22:54.124Z,3.10
2018-07-12T09:23:54.454Z,3.10
2018-07-12T09:24:54.853Z,2.10
2018-07-12T09:25:54.986Z,2.70
2018-07-12T09:26:54.991Z,3.60
2018-07-12T09:27:55.182Z,2.50
2018-07-12T09:28:55.496Z,2.50
2018-07-12T09:29:55.556Z,3.20
2018-07-12T09:30:55.916Z,2.60
2018-07-12T09:31:55.895Z,2.70
2018-07-12T09:32:56.810Z,2.30
2018-07-12T09:33:56.371Z,2.60
2018-07-12T09:34:56.555Z,2.20
2018-07-12T09:35:56.656Z,2.30
2018-07-12T09:36:56.932Z,2.30
2018-07-12T09:37:57.171Z,2.20
2018-07-12T09:38:57.330Z,2.50
2018-07-12T09:39:57.582Z,2.60
2018-07-12T09:40:57.874Z,2.20
2018-07-12T09:41:58.276Z,2.40
2018-07-12T09:42:58.243Z,2.30
2018-07-12T09:43:58.024Z,2.30
2018-07-12T09:44:58.516Z,2.80
2018-07-12T09:45:58.490Z,2.60
2018-07-12T09:46:58.988Z,2.20
2018-07-12T09:47:58.948Z,2.90
2018-07-12T09:48:59.287Z,2.70
2018-07-12T09:49:59.596Z,3.60
2018-07-12T09:50:59.389Z,4.00
2018-07-12T09:52:00.056Z,3.70
2018-07-12T09:52:59.958Z,2.90
2018-07-12T09:54:00.418Z,3.20
2018-07-12T09:55:00.334Z,5.60
2018-07-12T09:56:00.694Z,3.90
2018-07-12T09:57:00.368Z,2.90
2018-07-12T09:58:00.438Z,3.30
2018-07-12T09:59:00.823Z,3.60
2018-07-12T10:00:00.849Z,4.40
2018-07-12T10:01:01.115Z,6.60
2018-07-12T10:02:01.150Z,3.20
2018-07-12T10:03:01.331Z,3.60
2018-07-12T10:04:01.520Z,3.30
2018-07-12T10:05:01.698Z,3.20
2018-07-12T10:06:01.868Z,4.10
2018-07-12T10:07:02.058Z,3.70
2018-07-12T10:08:02.220Z,3.40
2018-07-12T10:09:02.393Z,2.90
2018-07-12T10:10:02.573Z,4.20
2018-07-12T10:11:02.750Z,2.90
2018-07-12T10:12:02.934Z,5.00
2018-07-12T10:13:03.123Z,3.20
2018-07-12T10:14:03.290Z,3.30
2018-07-12T10:15:03.470Z,3.60
2018-07-12T10:16:03.651Z,4.20
2018-07-12T10:17:03.829Z,4.30
2018-07-12T10:18:04.020Z,3.80
2018-07-12T10:19:04.200Z,2.90
2018-07-12T10:20:04.375Z,3.10
2018-07-12T10:21:04.597Z,2.70
2018-07-12T10:22:04.737Z,2.60
2018-07-12T10:23:04.929Z,2.50
2018-07-12T10:24:05.655Z,2.10
2018-07-12T10:25:05.336Z,2.60
2018-07-12T10:26:05.525Z,2.60
2018-07-12T10:27:05.697Z,2.20
2018-07-12T10:28:05.875Z,3.60
2018-07-12T10:29:06.049Z,2.70
2018-07-12T10:30:06.230Z,2.20
2018-07-12T10:31:06.413Z,2.70
2018-07-12T10:32:06.602Z,2.10
2018-07-12T10:33:06.775Z,2.00
2018-07-12T10:34:06.953Z,4.90
2018-07-12T10:35:07.130Z,2.60
2018-07-12T10:36:07.309Z,2.40
2018-07-12T10:37:07.492Z,2.90
2018-07-12T10:38:07.671Z,2.80
2018-07-12T10:40:01.706Z,2.70
2018-07-12T10:41:01.914Z,9.00
2018-07-12T10:42:02.264Z,2.70
2018-07-12T10:43:02.839Z,2.70
2018-07-12T10:44:02.821Z,3.00
2018-07-12T10:45:02.531Z,2.60
2018-07-12T10:46:03.147Z,2.40
2018-07-12T10:47:03.032Z,3.80
2018-07-12T10:48:02.565Z,4.80
2018-07-12T10:49:03.867Z,2.50
2018-07-12T10:50:03.905Z,4.20
2018-07-12T10:51:04.383Z,3.50
2018-07-12T10:52:04.512Z,2.60
2018-07-12T10:53:04.565Z,4.00
2018-07-12T10:54:04.391Z,2.40
2018-07-12T10:55:03.719Z,2.50
2018-07-12T10:56:03.928Z,3.00
2018-07-12T10:57:04.102Z,4.60
2018-07-12T10:58:04.290Z,4.30
2018-07-12T10:59:04.565Z,2.20
2018-07-12T11:00:05.422Z,2.60
2018-07-12T11:01:04.815Z,2.20
2018-07-12T11:02:04.991Z,2.10
2018-07-12T11:03:05.173Z,2.70
2018-07-12T11:04:05.361Z,2.00
2018-07-12T11:05:05.547Z,2.60
2018-07-12T11:06:05.720Z,2.20
2018-07-12T11:07:05.895Z,2.40
2018-07-12T11:08:06.079Z,2.40
2018-07-12T11:09:06.272Z,2.70
2018-07-12T11:10:06.435Z,7.00
2018-07-12T11:11:06.619Z,2.50
2018-07-12T11:12:06.797Z,3.00
2018-07-12T11:13:06.969Z,6.20
2018-07-12T11:14:07.144Z,2.20
2018-07-12T11:15:07.527Z,2.20
2018-07-12T11:16:07.767Z,2.20
2018-07-12T11:17:07.775Z,2.10
2018-07-12T11:18:07.959Z,2.30
2018-07-12T11:19:08.132Z,2.10
2018-07-12T11:20:08.353Z,2.10
2018-07-12T11:21:08.535Z,3.00
2018-07-12T11:22:08.714Z,2.80
2018-07-12T11:23:08.886Z,2.50
2018-07-12T11:24:09.060Z,2.30
2018-07-12T11:25:09.236Z,3.70
2018-07-12T11:26:09.418Z,2.70
2018-07-12T11:27:09.596Z,2.30
2018-07-12T11:28:09.851Z,3.30
2018-07-12T11:29:09.969Z,2.10
2018-07-12T11:30:10.170Z,2.10
2018-07-12T11:31:10.328Z,2.00
2018-07-12T11:32:10.506Z,3.50
2018-07-12T11:33:10.690Z,4.40
2018-07-12T11:34:10.868Z,2.40
2018-07-12T11:35:11.050Z,2.10
2018-07-12T11:36:11.241Z,2.10
2018-07-12T11:37:11.493Z,2.10
2018-07-12T11:38:11.603Z,2.80
2018-07-12T11:39:11.777Z,2.10
2018-07-12T11:40:11.963Z,1.90
2018-07-12T11:41:12.147Z,3.50
2018-07-12T11:42:12.325Z,2.20
2018-07-12T11:43:12.511Z,2.20
2018-07-12T11:44:12.695Z,3.00
2018-07-12T11:45:12.880Z,2.00
2018-07-12T11:46:13.071Z,1.70
2018-07-12T11:47:13.233Z,2.10
2018-07-12T11:48:13.430Z,2.30
2018-07-12T11:49:13.613Z,2.00
2018-07-12T11:50:14.434Z,1.70
2018-07-12T11:51:13.959Z,2.50
2018-07-12T11:52:14.301Z,1.80
2018-07-12T11:53:14.319Z,2.00
2018-07-12T11:54:15.430Z,2.00
2018-07-12T11:55:14.672Z,1.70
2018-07-12T11:56:14.847Z,1.70
2018-07-12T11:57:15.026Z,1.60
2018-07-12T11:58:15.208Z,2.00
2018-07-12T11:59:15.382Z,2.00
2018-07-12T12:00:15.564Z,2.70
2018-07-12T12:01:15.735Z,3.90
2018-07-12T12:02:15.916Z,2.20
2018-07-12T12:03:16.093Z,2.60
2018-07-12T12:04:16.272Z,1.80
2018-07-12T12:05:16.935Z,2.70
2018-07-12T12:06:16.624Z,2.20
2018-07-12T12:07:16.799Z,2.00
2018-07-12T12:08:16.979Z,5.20
2018-07-12T12:09:17.166Z,2.20
2018-07-12T12:10:17.354Z,2.90
2018-07-12T12:11:17.537Z,2.20
2018-07-12T12:12:18.134Z,1.70
2018-07-12T12:13:18.607Z,1.80
2018-07-12T12:14:18.188Z,2.30
2018-07-12T12:15:18.297Z,1.60
2018-07-12T12:16:18.575Z,2.00
2018-07-12T12:18:10.850Z,2.20
2018-07-12T12:19:11.035Z,2.20
2018-07-12T12:20:11.217Z,2.20
2018-07-12T12:21:11.406Z,2.10
2018-07-12T12:22:11.722Z,4.10
2018-07-12T12:23:11.809Z,4.30
2018-07-12T12:24:12.019Z,3.40
2018-07-12T12:25:12.285Z,2.10
2018-07-12T12:26:12.516Z,3.00
2018-07-12T12:27:12.660Z,2.30
2018-07-12T12:28:12.880Z,3.50
2018-07-12T12:29:13.181Z,3.00
2018-07-12T12:30:13.429Z,2.30
2018-07-12T12:31:13.788Z,2.40
2018-07-12T12:32:14.033Z,3.20
2018-07-12T12:33:13.723Z,1.90
2018-07-12T12:34:14.138Z,3.70
2018-07-12T12:35:14.078Z,2.60
2018-07-12T12:36:14.319Z,2.10
2018-07-12T12:37:14.513Z,3.10
2018-07-12T12:38:14.818Z,2.50
2018-07-12T12:39:14.919Z,5.90
2018-07-12T12:40:15.055Z,2.10
2018-07-12T12:41:15.252Z,3.80
2018-07-12T12:42:15.435Z,2.30
2018-07-12T12:43:15.623Z,2.10
2018-07-12T12:44:15.797Z,3.40
2018-07-12T12:45:15.983Z,2.50
2018-07-12T12:46:16.171Z,2.60
2018-07-12T12:47:16.349Z,2.30
2018-07-12T12:48:16.534Z,2.50
2018-07-12T12:49:16.719Z,3.30
2018-07-12T12:50:16.915Z,4.70
2018-07-12T12:51:17.105Z,2.20
2018-07-12T12:52:17.280Z,2.50
2018-07-12T12:53:17.641Z,4.30
2018-07-12T12:54:17.652Z,2.50
2018-07-12T12:55:17.823Z,3.30
2018-07-12T12:56:18.023Z,3.00
2018-07-12T12:57:18.183Z,4.20
2018-07-12T12:58:18.343Z,3.10
2018-07-12T12:59:18.526Z,2.80
2018-07-12T13:00:18.711Z,2.80
2018-07-12T13:01:18.890Z,2.40
2018-07-12T13:02:19.068Z,2.40
2018-07-12T13:03:19.257Z,2.60
2018-07-12T13:04:19.441Z,3.00
2018-07-12T13:05:19.623Z,2.60
2018-07-12T13:06:19.814Z,3.00
2018-07-12T13:07:19.996Z,2.90
2018-07-12T13:08:20.178Z,3.60